Strona główna
METAR-TAF:

METAR-TAF

Lotnisko :

Borden, Ontario, Kanada

Szerokość geograficzna: 44-15N, Długość geograficzna: 079-55W, wysokość: 223 m

Aktualna obserwacja pogody

Raport powstał 16 minut temu, godzina 22:00 UTC
Wiatr 7 kt od południe
Temperatura 4°C
Wilgotność 75%
Ciśnienie 1012 hPa
Widzialność: 14.5 km
Przerywane chmury na wysokości 2000 ft
Zachmurzenie całkowite na wysokości 9500 ft

METAR: CYBN 082200Z AUTO 19007KT 9SM BKN020 OVC095 04/00 A2989 RMK SLP132

czas: 17:16 (22:16 UTC)


TAF: brakujący

Obserwacja i prognoza pogody dla ponad 4000 lotnisk (raport METAR i TAF).

Dostępne stacje oznaczono żółtymi i czerwonymi punktami na mapie.

Najedź kursorem aby zobaczyć nazwę stacji.

Kliknij aby zobaczyć obserwacje i prognozy pogody.

Aby zmienić mapę: kliknij na zielony przycisk z czarnym krzyżykiem, aby powiększyć; na zielony przycisk z myślnikiem, aby pomniejszyć; na zielone strzałki, aby przejść do map sąsiednich.


METAR-TAF: